createdAt,value
2022-09-28T00:01:17.530Z,99041.81
2022-09-28T00:03:49.144Z,99040.16
2022-09-28T00:06:18.669Z,99036.81
2022-09-28T00:08:46.048Z,99041.72
2022-09-28T00:11:15.564Z,99030.09
2022-09-28T00:13:44.018Z,99019.94
2022-09-28T00:16:14.138Z,99011.53
2022-09-28T00:18:41.711Z,99013.59
2022-09-28T00:21:14.951Z,99012.84
2022-09-28T00:24:01.477Z,99010.94
2022-09-28T00:26:30.119Z,99011.66
2022-09-28T00:29:01.982Z,99010.47
2022-09-28T00:31:32.789Z,99015.59
2022-09-28T00:34:05.315Z,99005.91
2022-09-28T00:36:34.011Z,99010.59
2022-09-28T00:39:07.503Z,99018.63
2022-09-28T00:41:34.910Z,99020.19
2022-09-28T00:44:26.274Z,99016.84
2022-09-28T00:47:21.149Z,99022.69
2022-09-28T00:49:56.712Z,99022.94
2022-09-28T00:52:41.835Z,99022.81
2022-09-28T00:55:13.585Z,99021.63
2022-09-28T00:57:44.570Z,99014.78
2022-09-28T01:00:12.096Z,99025.66
2022-09-28T01:02:39.021Z,99032.28
2022-09-28T01:05:10.299Z,99035.38
2022-09-28T01:07:38.483Z,99038.53
2022-09-28T01:10:06.039Z,99036.22
2022-09-28T01:12:33.039Z,99038.13
2022-09-28T01:15:01.924Z,99038.97
2022-09-28T01:17:31.787Z,99042.09
2022-09-28T01:20:23.322Z,99045.06
2022-09-28T01:23:31.626Z,99039.69
2022-09-28T01:26:17.392Z,99044.34
2022-09-28T01:28:47.266Z,99043.63
2022-09-28T01:31:16.072Z,99046.97
2022-09-28T01:33:54.730Z,99059.56
2022-09-28T01:36:30.326Z,99053.59
2022-09-28T01:39:05.431Z,99056.81
2022-09-28T01:41:36.587Z,99053.47
2022-09-28T01:44:08.744Z,99056.94
2022-09-28T01:46:42.185Z,99066.78
2022-09-28T01:49:15.078Z,99060.53
2022-09-28T01:51:44.728Z,99063.31
2022-09-28T01:54:15.060Z,99064.00
2022-09-28T01:56:51.418Z,99070.34
2022-09-28T01:59:24.754Z,99071.91
2022-09-28T02:02:22.179Z,99068.56
2022-09-28T02:04:55.487Z,99071.69
2022-09-28T02:07:31.306Z,99063.78
2022-09-28T02:10:07.056Z,99069.28
2022-09-28T02:12:44.501Z,99064.47
2022-09-28T02:15:19.197Z,99069.63
2022-09-28T02:17:46.408Z,99061.94
2022-09-28T02:20:14.167Z,99070.47
2022-09-28T02:22:53.552Z,99071.44
2022-09-28T02:25:31.443Z,99070.13
2022-09-28T02:28:04.801Z,99068.81
2022-09-28T02:30:35.423Z,99067.50
2022-09-28T02:33:10.805Z,99075.63
2022-09-28T02:35:38.707Z,99071.56
2022-09-28T02:38:05.651Z,99070.03
2022-09-28T02:40:34.977Z,99080.75
2022-09-28T02:43:24.272Z,99090.03
2022-09-28T02:46:39.352Z,99071.56
2022-09-28T02:49:23.631Z,99070.94
2022-09-28T02:52:11.691Z,99068.09
2022-09-28T02:54:51.000Z,99065.19
2022-09-28T02:57:43.637Z,99069.84
2022-09-28T03:00:31.738Z,99069.41
2022-09-28T03:03:13.020Z,99075.78
2022-09-28T03:06:05.249Z,99089.06
2022-09-28T03:09:20.422Z,99099.50
2022-09-28T03:11:53.834Z,99103.41
2022-09-28T03:14:20.814Z,99102.38
2022-09-28T03:16:47.663Z,99109.53
2022-09-28T03:19:17.350Z,99107.88
2022-09-28T03:21:44.177Z,99102.22
2022-09-28T03:24:11.224Z,99103.81
2022-09-28T03:26:39.240Z,99111.81
2022-09-28T03:29:06.090Z,99110.13
2022-09-28T03:31:33.052Z,99102.63
2022-09-28T03:33:59.988Z,99103.91
2022-09-28T03:36:26.845Z,99106.09
2022-09-28T03:38:56.133Z,99107.94
2022-09-28T03:41:27.797Z,99108.34
2022-09-28T03:43:54.932Z,99099.59
2022-09-28T03:46:21.888Z,99106.41
2022-09-28T03:48:48.938Z,99099.34
2022-09-28T03:51:15.744Z,99109.16
2022-09-28T03:53:42.483Z,99107.59
2022-09-28T03:56:14.563Z,99112.03
2022-09-28T03:58:41.624Z,99110.22
2022-09-28T04:01:16.545Z,99109.19
2022-09-28T04:03:44.381Z,99113.88
2022-09-28T04:06:11.230Z,99109.88
2022-09-28T04:08:38.101Z,99107.94
2022-09-28T04:11:05.356Z,99104.72
2022-09-28T04:13:32.316Z,99113.00
2022-09-28T04:16:01.309Z,99111.81
2022-09-28T04:18:28.745Z,99110.72
